sensor_id;sensor_type;location;lat;lon;timestamp;P1;durP1;ratioP1;P2;durP2;ratioP2
41343;SDS011;27089;50.022;7.604;2023-07-13T00:01:46;6.57;;;2.30;;
41343;SDS011;27089;50.022;7.604;2023-07-13T00:04:16;3.17;;;1.90;;
41343;SDS011;27089;50.022;7.604;2023-07-13T00:06:43;4.20;;;1.93;;
41343;SDS011;27089;50.022;7.604;2023-07-13T00:09:11;3.17;;;1.90;;
41343;SDS011;27089;50.022;7.604;2023-07-13T00:11:38;3.33;;;1.70;;
41343;SDS011;27089;50.022;7.604;2023-07-13T00:14:06;3.20;;;1.93;;
41343;SDS011;27089;50.022;7.604;2023-07-13T00:16:33;2.73;;;2.00;;
41343;SDS011;27089;50.022;7.604;2023-07-13T00:19:01;2.23;;;1.70;;
41343;SDS011;27089;50.022;7.604;2023-07-13T00:21:29;3.67;;;1.93;;
41343;SDS011;27089;50.022;7.604;2023-07-13T00:23:56;4.97;;;2.00;;
41343;SDS011;27089;50.022;7.604;2023-07-13T00:26:24;2.43;;;1.90;;
41343;SDS011;27089;50.022;7.604;2023-07-13T00:28:51;6.10;;;1.80;;
41343;SDS011;27089;50.022;7.604;2023-07-13T00:31:19;4.63;;;2.07;;
41343;SDS011;27089;50.022;7.604;2023-07-13T00:33:46;7.47;;;2.30;;
41343;SDS011;27089;50.022;7.604;2023-07-13T00:36:13;3.47;;;2.10;;
41343;SDS011;27089;50.022;7.604;2023-07-13T00:38:41;3.27;;;1.93;;
41343;SDS011;27089;50.022;7.604;2023-07-13T00:41:09;3.17;;;1.90;;
41343;SDS011;27089;50.022;7.604;2023-07-13T00:43:36;3.73;;;2.00;;
41343;SDS011;27089;50.022;7.604;2023-07-13T00:48:52;3.67;;;2.30;;
41343;SDS011;27089;50.022;7.604;2023-07-13T00:51:25;4.23;;;2.00;;
41343;SDS011;27089;50.022;7.604;2023-07-13T00:53:58;3.57;;;2.07;;
41343;SDS011;27089;50.022;7.604;2023-07-13T00:56:29;4.43;;;2.10;;
41343;SDS011;27089;50.022;7.604;2023-07-13T00:58:56;2.53;;;2.03;;
41343;SDS011;27089;50.022;7.604;2023-07-13T01:01:25;2.97;;;1.90;;
41343;SDS011;27089;50.022;7.604;2023-07-13T01:03:52;3.37;;;2.00;;
41343;SDS011;27089;50.022;7.604;2023-07-13T01:06:19;3.90;;;2.23;;
41343;SDS011;27089;50.022;7.604;2023-07-13T01:08:46;3.30;;;2.17;;
41343;SDS011;27089;50.022;7.604;2023-07-13T01:11:16;4.93;;;2.40;;
41343;SDS011;27089;50.022;7.604;2023-07-13T01:13:46;3.80;;;2.13;;
41343;SDS011;27089;50.022;7.604;2023-07-13T01:16:22;7.30;;;2.57;;
41343;SDS011;27089;50.022;7.604;2023-07-13T01:18:52;3.73;;;2.57;;
41343;SDS011;27089;50.022;7.604;2023-07-13T01:21:24;3.80;;;2.20;;
41343;SDS011;27089;50.022;7.604;2023-07-13T01:23:52;4.20;;;2.40;;
41343;SDS011;27089;50.022;7.604;2023-07-13T01:26:19;3.23;;;2.40;;
41343;SDS011;27089;50.022;7.604;2023-07-13T01:28:46;3.10;;;2.17;;
41343;SDS011;27089;50.022;7.604;2023-07-13T01:31:13;5.43;;;2.30;;
41343;SDS011;27089;50.022;7.604;2023-07-13T01:33:40;4.97;;;2.30;;
41343;SDS011;27089;50.022;7.604;2023-07-13T01:36:08;4.50;;;2.60;;
41343;SDS011;27089;50.022;7.604;2023-07-13T01:38:37;3.40;;;2.00;;
41343;SDS011;27089;50.022;7.604;2023-07-13T01:41:04;3.07;;;2.30;;
41343;SDS011;27089;50.022;7.604;2023-07-13T01:43:31;3.53;;;1.90;;
41343;SDS011;27089;50.022;7.604;2023-07-13T01:45:58;4.27;;;2.13;;
41343;SDS011;27089;50.022;7.604;2023-07-13T01:48:25;3.83;;;2.20;;
41343;SDS011;27089;50.022;7.604;2023-07-13T01:50:52;2.90;;;2.30;;
41343;SDS011;27089;50.022;7.604;2023-07-13T01:53:19;3.47;;;2.10;;
41343;SDS011;27089;50.022;7.604;2023-07-13T01:55:47;4.00;;;2.43;;
41343;SDS011;27089;50.022;7.604;2023-07-13T01:58:14;4.67;;;2.20;;
41343;SDS011;27089;50.022;7.604;2023-07-13T02:00:41;4.87;;;2.10;;
41343;SDS011;27089;50.022;7.604;2023-07-13T02:03:08;3.80;;;2.10;;
41343;SDS011;27089;50.022;7.604;2023-07-13T02:05:35;3.53;;;2.30;;
41343;SDS011;27089;50.022;7.604;2023-07-13T02:08:03;4.37;;;2.50;;
41343;SDS011;27089;50.022;7.604;2023-07-13T02:10:30;5.33;;;2.63;;
41343;SDS011;27089;50.022;7.604;2023-07-13T02:12:58;3.57;;;2.40;;
41343;SDS011;27089;50.022;7.604;2023-07-13T02:15:25;4.40;;;2.10;;
41343;SDS011;27089;50.022;7.604;2023-07-13T02:17:52;4.03;;;1.97;;
41343;SDS011;27089;50.022;7.604;2023-07-13T02:20:19;3.93;;;2.30;;
41343;SDS011;27089;50.022;7.604;2023-07-13T02:22:46;6.63;;;2.30;;
41343;SDS011;27089;50.022;7.604;2023-07-13T02:25:13;3.33;;;2.03;;
41343;SDS011;27089;50.022;7.604;2023-07-13T02:27:40;4.10;;;2.20;;
41343;SDS011;27089;50.022;7.604;2023-07-13T02:30:09;3.53;;;2.47;;
41343;SDS011;27089;50.022;7.604;2023-07-13T02:32:37;4.97;;;2.27;;
41343;SDS011;27089;50.022;7.604;2023-07-13T02:35:05;2.63;;;2.40;;
41343;SDS011;27089;50.022;7.604;2023-07-13T02:37:32;2.67;;;2.10;;
41343;SDS011;27089;50.022;7.604;2023-07-13T02:39:59;4.23;;;2.30;;
41343;SDS011;27089;50.022;7.604;2023-07-13T02:42:26;2.43;;;2.23;;
41343;SDS011;27089;50.022;7.604;2023-07-13T02:44:53;3.17;;;2.30;;
41343;SDS011;27089;50.022;7.604;2023-07-13T02:47:21;4.30;;;2.40;;
41343;SDS011;27089;50.022;7.604;2023-07-13T02:49:48;2.90;;;2.23;;
41343;SDS011;27089;50.022;7.604;2023-07-13T02:52:15;4.53;;;2.33;;
41343;SDS011;27089;50.022;7.604;2023-07-13T02:54:42;4.90;;;1.83;;
41343;SDS011;27089;50.022;7.604;2023-07-13T02:57:09;8.40;;;2.30;;
41343;SDS011;27089;50.022;7.604;2023-07-13T02:59:36;12.73;;;2.57;;
41343;SDS011;27089;50.022;7.604;2023-07-13T03:02:03;5.17;;;2.00;;
41343;SDS011;27089;50.022;7.604;2023-07-13T03:04:32;3.00;;;2.07;;
41343;SDS011;27089;50.022;7.604;2023-07-13T03:06:59;4.10;;;2.27;;
41343;SDS011;27089;50.022;7.604;2023-07-13T03:09:25;2.70;;;2.10;;
41343;SDS011;27089;50.022;7.604;2023-07-13T03:11:53;4.53;;;2.30;;
41343;SDS011;27089;50.022;7.604;2023-07-13T03:14:21;5.90;;;2.50;;
41343;SDS011;27089;50.022;7.604;2023-07-13T03:16:49;3.13;;;2.30;;
41343;SDS011;27089;50.022;7.604;2023-07-13T03:19:17;3.00;;;2.37;;
41343;SDS011;27089;50.022;7.604;2023-07-13T03:21:45;5.27;;;2.27;;
41343;SDS011;27089;50.022;7.604;2023-07-13T03:24:12;2.57;;;2.20;;
41343;SDS011;27089;50.022;7.604;2023-07-13T03:26:40;5.33;;;2.53;;
41343;SDS011;27089;50.022;7.604;2023-07-13T03:29:07;3.23;;;1.97;;
41343;SDS011;27089;50.022;7.604;2023-07-13T03:31:34;6.90;;;2.60;;
41343;SDS011;27089;50.022;7.604;2023-07-13T03:34:03;4.20;;;2.33;;
41343;SDS011;27089;50.022;7.604;2023-07-13T03:36:31;3.57;;;2.40;;
41343;SDS011;27089;50.022;7.604;2023-07-13T03:39:00;4.13;;;2.50;;
41343;SDS011;27089;50.022;7.604;2023-07-13T03:41:28;2.50;;;1.90;;
41343;SDS011;27089;50.022;7.604;2023-07-13T03:43:56;3.20;;;2.13;;
41343;SDS011;27089;50.022;7.604;2023-07-13T03:46:23;3.03;;;2.20;;
41343;SDS011;27089;50.022;7.604;2023-07-13T03:48:51;3.73;;;2.43;;
41343;SDS011;27089;50.022;7.604;2023-07-13T03:51:18;2.40;;;1.97;;
41343;SDS011;27089;50.022;7.604;2023-07-13T03:53:46;3.27;;;1.90;;
41343;SDS011;27089;50.022;7.604;2023-07-13T03:56:16;3.00;;;2.13;;
41343;SDS011;27089;50.022;7.604;2023-07-13T03:58:44;3.47;;;2.10;;
41343;SDS011;27089;50.022;7.604;2023-07-13T04:01:12;3.37;;;2.27;;
41343;SDS011;27089;50.022;7.604;2023-07-13T04:03:41;3.33;;;1.90;;
41343;SDS011;27089;50.022;7.604;2023-07-13T04:06:12;3.77;;;2.10;;
41343;SDS011;27089;50.022;7.604;2023-07-13T04:08:46;4.60;;;2.10;;
41343;SDS011;27089;50.022;7.604;2023-07-13T04:11:17;4.77;;;1.97;;
41343;SDS011;27089;50.022;7.604;2023-07-13T04:13:44;3.40;;;2.30;;
41343;SDS011;27089;50.022;7.604;2023-07-13T04:16:11;4.83;;;2.10;;
41343;SDS011;27089;50.022;7.604;2023-07-13T04:18:39;4.57;;;2.00;;
41343;SDS011;27089;50.022;7.604;2023-07-13T04:21:06;6.37;;;2.50;;
41343;SDS011;27089;50.022;7.604;2023-07-13T04:23:34;2.43;;;2.20;;
41343;SDS011;27089;50.022;7.604;2023-07-13T04:26:01;2.67;;;2.03;;
41343;SDS011;27089;50.022;7.604;2023-07-13T04:28:29;4.73;;;2.07;;
41343;SDS011;27089;50.022;7.604;2023-07-13T04:30:56;4.40;;;2.33;;
41343;SDS011;27089;50.022;7.604;2023-07-13T04:33:24;5.30;;;3.50;;
41343;SDS011;27089;50.022;7.604;2023-07-13T04:35:51;4.20;;;2.60;;
41343;SDS011;27089;50.022;7.604;2023-07-13T04:38:21;3.97;;;2.00;;
41343;SDS011;27089;50.022;7.604;2023-07-13T04:40:49;5.90;;;1.97;;
41343;SDS011;27089;50.022;7.604;2023-07-13T04:43:17;8.07;;;2.40;;
41343;SDS011;27089;50.022;7.604;2023-07-13T04:45:45;7.87;;;2.10;;
41343;SDS011;27089;50.022;7.604;2023-07-13T04:48:12;5.27;;;2.10;;
41343;SDS011;27089;50.022;7.604;2023-07-13T04:50:39;3.23;;;2.23;;
41343;SDS011;27089;50.022;7.604;2023-07-13T04:53:06;7.97;;;2.10;;
41343;SDS011;27089;50.022;7.604;2023-07-13T04:55:33;3.00;;;2.10;;
41343;SDS011;27089;50.022;7.604;2023-07-13T04:58:00;2.63;;;2.03;;
41343;SDS011;27089;50.022;7.604;2023-07-13T05:00:28;4.73;;;2.33;;
41343;SDS011;27089;50.022;7.604;2023-07-13T05:02:57;3.07;;;2.00;;
41343;SDS011;27089;50.022;7.604;2023-07-13T05:05:25;3.33;;;2.20;;
41343;SDS011;27089;50.022;7.604;2023-07-13T05:07:53;6.27;;;2.30;;
41343;SDS011;27089;50.022;7.604;2023-07-13T05:10:20;3.83;;;2.43;;
41343;SDS011;27089;50.022;7.604;2023-07-13T05:12:47;4.17;;;2.23;;
41343;SDS011;27089;50.022;7.604;2023-07-13T05:15:15;3.80;;;2.33;;
41343;SDS011;27089;50.022;7.604;2023-07-13T05:17:46;4.93;;;2.27;;
41343;SDS011;27089;50.022;7.604;2023-07-13T05:20:14;2.60;;;2.30;;
41343;SDS011;27089;50.022;7.604;2023-07-13T05:22:42;4.77;;;2.40;;
41343;SDS011;27089;50.022;7.604;2023-07-13T05:25:12;5.57;;;2.70;;
41343;SDS011;27089;50.022;7.604;2023-07-13T05:27:39;4.27;;;2.37;;
41343;SDS011;27089;50.022;7.604;2023-07-13T05:30:06;5.43;;;2.30;;
41343;SDS011;27089;50.022;7.604;2023-07-13T05:32:36;5.17;;;2.30;;
41343;SDS011;27089;50.022;7.604;2023-07-13T05:35:03;4.70;;;2.60;;
41343;SDS011;27089;50.022;7.604;2023-07-13T05:37:32;3.40;;;2.60;;
41343;SDS011;27089;50.022;7.604;2023-07-13T05:39:59;3.63;;;2.23;;
41343;SDS011;27089;50.022;7.604;2023-07-13T05:42:26;2.57;;;2.10;;
41343;SDS011;27089;50.022;7.604;2023-07-13T05:44:53;3.40;;;1.80;;
41343;SDS011;27089;50.022;7.604;2023-07-13T05:47:20;3.30;;;1.83;;
41343;SDS011;27089;50.022;7.604;2023-07-13T05:49:47;3.50;;;2.07;;
41343;SDS011;27089;50.022;7.604;2023-07-13T05:52:14;6.90;;;2.17;;
41343;SDS011;27089;50.022;7.604;2023-07-13T05:54:43;4.67;;;2.30;;
41343;SDS011;27089;50.022;7.604;2023-07-13T05:57:10;4.00;;;1.83;;
41343;SDS011;27089;50.022;7.604;2023-07-13T05:59:37;4.32;;;1.80;;
41343;SDS011;27089;50.022;7.604;2023-07-13T06:02:03;3.28;;;1.58;;
41343;SDS011;27089;50.022;7.604;2023-07-13T06:04:31;2.00;;;1.50;;
41343;SDS011;27089;50.022;7.604;2023-07-13T06:06:58;3.20;;;1.60;;
41343;SDS011;27089;50.022;7.604;2023-07-13T06:09:25;2.40;;;1.52;;
41343;SDS011;27089;50.022;7.604;2023-07-13T06:11:53;1.77;;;1.42;;
41343;SDS011;27089;50.022;7.604;2023-07-13T06:14:20;3.97;;;1.50;;
41343;SDS011;27089;50.022;7.604;2023-07-13T06:16:47;3.83;;;1.40;;
41343;SDS011;27089;50.022;7.604;2023-07-13T06:19:14;3.58;;;1.20;;
41343;SDS011;27089;50.022;7.604;2023-07-13T06:21:41;3.63;;;1.13;;
41343;SDS011;27089;50.022;7.604;2023-07-13T06:24:08;2.22;;;1.25;;
41343;SDS011;27089;50.022;7.604;2023-07-13T06:26:35;1.92;;;1.20;;
41343;SDS011;27089;50.022;7.604;2023-07-13T06:29:03;3.53;;;1.25;;
41343;SDS011;27089;50.022;7.604;2023-07-13T06:31:30;4.82;;;1.30;;
41343;SDS011;27089;50.022;7.604;2023-07-13T06:33:58;3.25;;;1.45;;
41343;SDS011;27089;50.022;7.604;2023-07-13T06:36:24;4.35;;;1.20;;
41343;SDS011;27089;50.022;7.604;2023-07-13T06:38:51;2.75;;;1.13;;
41343;SDS011;27089;50.022;7.604;2023-07-13T06:41:18;3.55;;;1.25;;
41343;SDS011;27089;50.022;7.604;2023-07-13T06:43:47;2.17;;;0.95;;
41343;SDS011;27089;50.022;7.604;2023-07-13T06:46:15;2.47;;;1.27;;
41343;SDS011;27089;50.022;7.604;2023-07-13T06:48:42;3.75;;;1.10;;
41343;SDS011;27089;50.022;7.604;2023-07-13T06:51:09;3.20;;;1.10;;
41343;SDS011;27089;50.022;7.604;2023-07-13T06:53:36;3.10;;;1.13;;
41343;SDS011;27089;50.022;7.604;2023-07-13T06:56:03;2.70;;;1.00;;
41343;SDS011;27089;50.022;7.604;2023-07-13T06:58:30;2.42;;;0.95;;
41343;SDS011;27089;50.022;7.604;2023-07-13T07:00:57;2.03;;;1.10;;
41343;SDS011;27089;50.022;7.604;2023-07-13T07:03:26;1.70;;;0.85;;
41343;SDS011;27089;50.022;7.604;2023-07-13T07:05:52;2.50;;;0.85;;
41343;SDS011;27089;50.022;7.604;2023-07-13T07:08:19;1.45;;;0.63;;
41343;SDS011;27089;50.022;7.604;2023-07-13T07:10:46;4.47;;;0.80;;
41343;SDS011;27089;50.022;7.604;2023-07-13T07:13:18;2.78;;;0.80;;
41343;SDS011;27089;50.022;7.604;2023-07-13T07:15:46;2.42;;;0.90;;
41343;SDS011;27089;50.022;7.604;2023-07-13T07:18:13;1.38;;;0.80;;
41343;SDS011;27089;50.022;7.604;2023-07-13T07:20:41;2.63;;;1.05;;
41343;SDS011;27089;50.022;7.604;2023-07-13T07:23:08;2.55;;;0.80;;
41343;SDS011;27089;50.022;7.604;2023-07-13T07:25:35;1.95;;;0.88;;
41343;SDS011;27089;50.022;7.604;2023-07-13T07:28:07;3.60;;;1.00;;
41343;SDS011;27089;50.022;7.604;2023-07-13T07:30:34;1.17;;;0.80;;
41343;SDS011;27089;50.022;7.604;2023-07-13T07:33:01;2.92;;;0.90;;
41343;SDS011;27089;50.022;7.604;2023-07-13T07:35:28;0.75;;;0.60;;
41343;SDS011;27089;50.022;7.604;2023-07-13T07:37:57;1.83;;;0.80;;
41343;SDS011;27089;50.022;7.604;2023-07-13T07:40:23;3.05;;;0.90;;
41343;SDS011;27089;50.022;7.604;2023-07-13T07:42:51;1.67;;;0.95;;
41343;SDS011;27089;50.022;7.604;2023-07-13T07:45:18;2.30;;;0.80;;
41343;SDS011;27089;50.022;7.604;2023-07-13T07:47:45;2.85;;;1.13;;
41343;SDS011;27089;50.022;7.604;2023-07-13T07:50:12;2.60;;;0.90;;
41343;SDS011;27089;50.022;7.604;2023-07-13T07:52:39;3.08;;;1.10;;
41343;SDS011;27089;50.022;7.604;2023-07-13T07:55:08;2.55;;;0.90;;
41343;SDS011;27089;50.022;7.604;2023-07-13T07:57:36;4.18;;;1.10;;
41343;SDS011;27089;50.022;7.604;2023-07-13T08:00:03;3.42;;;1.00;;
41343;SDS011;27089;50.022;7.604;2023-07-13T08:02:30;1.92;;;0.82;;
41343;SDS011;27089;50.022;7.604;2023-07-13T08:04:57;4.32;;;0.90;;
41343;SDS011;27089;50.022;7.604;2023-07-13T08:07:24;2.67;;;1.02;;
41343;SDS011;27089;50.022;7.604;2023-07-13T08:09:51;1.80;;;0.75;;
41343;SDS011;27089;50.022;7.604;2023-07-13T08:12:20;2.63;;;0.90;;
41343;SDS011;27089;50.022;7.604;2023-07-13T08:14:49;1.85;;;1.00;;
41343;SDS011;27089;50.022;7.604;2023-07-13T08:17:18;2.70;;;0.90;;
41343;SDS011;27089;50.022;7.604;2023-07-13T08:19:46;2.72;;;0.82;;
41343;SDS011;27089;50.022;7.604;2023-07-13T08:22:13;2.15;;;1.17;;
41343;SDS011;27089;50.022;7.604;2023-07-13T08:24:40;1.88;;;0.93;;
41343;SDS011;27089;50.022;7.604;2023-07-13T08:27:07;1.42;;;0.70;;
41343;SDS011;27089;50.022;7.604;2023-07-13T08:29:37;1.67;;;0.80;;
41343;SDS011;27089;50.022;7.604;2023-07-13T08:32:05;1.90;;;1.02;;
41343;SDS011;27089;50.022;7.604;2023-07-13T08:34:34;1.65;;;0.95;;
41343;SDS011;27089;50.022;7.604;2023-07-13T08:37:01;2.80;;;1.00;;
41343;SDS011;27089;50.022;7.604;2023-07-13T08:39:29;2.00;;;1.20;;
41343;SDS011;27089;50.022;7.604;2023-07-13T08:41:58;1.77;;;0.88;;
41343;SDS011;27089;50.022;7.604;2023-07-13T08:44:30;2.28;;;0.90;;
41343;SDS011;27089;50.022;7.604;2023-07-13T08:47:06;3.03;;;1.23;;
41343;SDS011;27089;50.022;7.604;2023-07-13T08:49:36;1.75;;;1.00;;
41343;SDS011;27089;50.022;7.604;2023-07-13T08:52:04;3.47;;;0.93;;
41343;SDS011;27089;50.022;7.604;2023-07-13T08:54:40;2.70;;;1.08;;
41343;SDS011;27089;50.022;7.604;2023-07-13T08:57:11;0.95;;;0.80;;
41343;SDS011;27089;50.022;7.604;2023-07-13T08:59:42;2.47;;;1.02;;
41343;SDS011;27089;50.022;7.604;2023-07-13T09:02:16;4.30;;;1.25;;
41343;SDS011;27089;50.022;7.604;2023-07-13T09:04:49;2.97;;;0.93;;
41343;SDS011;27089;50.022;7.604;2023-07-13T09:07:22;2.05;;;0.95;;
41343;SDS011;27089;50.022;7.604;2023-07-13T09:10:00;2.75;;;0.93;;
41343;SDS011;27089;50.022;7.604;2023-07-13T09:12:36;2.30;;;1.20;;
41343;SDS011;27089;50.022;7.604;2023-07-13T09:15:17;2.15;;;1.00;;
41343;SDS011;27089;50.022;7.604;2023-07-13T09:17:51;4.95;;;1.20;;
41343;SDS011;27089;50.022;7.604;2023-07-13T09:20:23;3.40;;;1.05;;
41343;SDS011;27089;50.022;7.604;2023-07-13T09:22:55;3.40;;;1.30;;
41343;SDS011;27089;50.022;7.604;2023-07-13T09:25:24;2.40;;;1.02;;
41343;SDS011;27089;50.022;7.604;2023-07-13T09:27:57;2.15;;;1.00;;
41343;SDS011;27089;50.022;7.604;2023-07-13T09:30:32;5.38;;;1.02;;
41343;SDS011;27089;50.022;7.604;2023-07-13T09:33:03;3.92;;;1.02;;
41343;SDS011;27089;50.022;7.604;2023-07-13T09:35:30;2.78;;;1.13;;
41343;SDS011;27089;50.022;7.604;2023-07-13T09:37:58;6.57;;;1.10;;
41343;SDS011;27089;50.022;7.604;2023-07-13T09:40:33;2.00;;;1.02;;
41343;SDS011;27089;50.022;7.604;2023-07-13T09:43:07;1.85;;;1.00;;
41343;SDS011;27089;50.022;7.604;2023-07-13T09:45:38;1.73;;;1.25;;
41343;SDS011;27089;50.022;7.604;2023-07-13T09:48:06;3.20;;;0.90;;
41343;SDS011;27089;50.022;7.604;2023-07-13T09:50:37;3.67;;;1.20;;
41343;SDS011;27089;50.022;7.604;2023-07-13T09:53:09;0.88;;;0.80;;
41343;SDS011;27089;50.022;7.604;2023-07-13T09:55:39;2.58;;;0.90;;
41343;SDS011;27089;50.022;7.604;2023-07-13T09:58:09;2.13;;;0.90;;
41343;SDS011;27089;50.022;7.604;2023-07-13T10:00:39;1.23;;;0.85;;
41343;SDS011;27089;50.022;7.604;2023-07-13T10:03:19;3.15;;;1.20;;
41343;SDS011;27089;50.022;7.604;2023-07-13T10:05:48;2.30;;;0.93;;
41343;SDS011;27089;50.022;7.604;2023-07-13T10:08:21;2.35;;;1.10;;
41343;SDS011;27089;50.022;7.604;2023-07-13T10:10:54;3.85;;;0.98;;
41343;SDS011;27089;50.022;7.604;2023-07-13T10:13:29;3.75;;;0.90;;
41343;SDS011;27089;50.022;7.604;2023-07-13T10:16:00;1.55;;;0.80;;
41343;SDS011;27089;50.022;7.604;2023-07-13T10:18:31;2.70;;;0.80;;
41343;SDS011;27089;50.022;7.604;2023-07-13T10:21:14;1.13;;;0.80;;
41343;SDS011;27089;50.022;7.604;2023-07-13T10:23:43;1.92;;;0.80;;
41343;SDS011;27089;50.022;7.604;2023-07-13T10:26:14;2.25;;;0.80;;
41343;SDS011;27089;50.022;7.604;2023-07-13T10:28:46;2.72;;;0.80;;
41343;SDS011;27089;50.022;7.604;2023-07-13T10:31:19;3.17;;;1.00;;
41343;SDS011;27089;50.022;7.604;2023-07-13T10:33:47;1.88;;;1.00;;
41343;SDS011;27089;50.022;7.604;2023-07-13T10:36:17;3.85;;;1.08;;
41343;SDS011;27089;50.022;7.604;2023-07-13T10:38:52;2.38;;;0.98;;
41343;SDS011;27089;50.022;7.604;2023-07-13T10:41:21;1.58;;;0.90;;
41343;SDS011;27089;50.022;7.604;2023-07-13T10:43:52;3.35;;;0.93;;
41343;SDS011;27089;50.022;7.604;2023-07-13T10:46:23;1.45;;;0.85;;
41343;SDS011;27089;50.022;7.604;2023-07-13T10:48:54;1.13;;;0.90;;
41343;SDS011;27089;50.022;7.604;2023-07-13T10:51:24;1.70;;;0.90;;
41343;SDS011;27089;50.022;7.604;2023-07-13T10:54:17;2.00;;;1.00;;
41343;SDS011;27089;50.022;7.604;2023-07-13T10:56:48;3.65;;;1.05;;
41343;SDS011;27089;50.022;7.604;2023-07-13T10:59:17;1.83;;;1.00;;
41343;SDS011;27089;50.022;7.604;2023-07-13T11:01:55;1.70;;;0.98;;
41343;SDS011;27089;50.022;7.604;2023-07-13T11:04:24;3.20;;;1.00;;
41343;SDS011;27089;50.022;7.604;2023-07-13T11:06:56;1.77;;;0.90;;
41343;SDS011;27089;50.022;7.604;2023-07-13T11:09:33;1.60;;;0.95;;
41343;SDS011;27089;50.022;7.604;2023-07-13T11:12:06;2.88;;;1.13;;
41343;SDS011;27089;50.022;7.604;2023-07-13T11:14:41;2.40;;;0.90;;
41343;SDS011;27089;50.022;7.604;2023-07-13T11:23:07;2.67;;;0.80;;
41343;SDS011;27089;50.022;7.604;2023-07-13T11:25:46;3.25;;;1.00;;
41343;SDS011;27089;50.022;7.604;2023-07-13T11:28:16;2.92;;;1.10;;
41343;SDS011;27089;50.022;7.604;2023-07-13T11:30:48;1.50;;;0.88;;
41343;SDS011;27089;50.022;7.604;2023-07-13T11:33:28;3.25;;;1.13;;
41343;SDS011;27089;50.022;7.604;2023-07-13T11:36:13;3.75;;;1.02;;
41343;SDS011;27089;50.022;7.604;2023-07-13T11:38:42;1.98;;;0.82;;
41343;SDS011;27089;50.022;7.604;2023-07-13T11:41:14;2.20;;;0.88;;
41343;SDS011;27089;50.022;7.604;2023-07-13T11:43:43;1.70;;;0.90;;
41343;SDS011;27089;50.022;7.604;2023-07-13T11:46:14;1.90;;;0.90;;
41343;SDS011;27089;50.022;7.604;2023-07-13T11:48:43;2.42;;;1.00;;
41343;SDS011;27089;50.022;7.604;2023-07-13T11:51:15;2.05;;;1.00;;
41343;SDS011;27089;50.022;7.604;2023-07-13T11:53:47;2.28;;;0.95;;
41343;SDS011;27089;50.022;7.604;2023-07-13T11:56:16;2.92;;;1.02;;
41343;SDS011;27089;50.022;7.604;2023-07-13T11:58:43;3.53;;;0.85;;
41343;SDS011;27089;50.022;7.604;2023-07-13T12:01:16;2.35;;;0.85;;
41343;SDS011;27089;50.022;7.604;2023-07-13T12:03:48;1.52;;;0.82;;
41343;SDS011;27089;50.022;7.604;2023-07-13T12:06:24;2.50;;;1.10;;
41343;SDS011;27089;50.022;7.604;2023-07-13T12:08:55;1.58;;;0.80;;
41343;SDS011;27089;50.022;7.604;2023-07-13T12:11:23;1.77;;;1.30;;
41343;SDS011;27089;50.022;7.604;2023-07-13T12:13:50;2.30;;;1.02;;
41343;SDS011;27089;50.022;7.604;2023-07-13T12:16:20;3.00;;;1.00;;
41343;SDS011;27089;50.022;7.604;2023-07-13T12:18:53;1.55;;;0.90;;
41343;SDS011;27089;50.022;7.604;2023-07-13T12:21:22;1.63;;;1.00;;
41343;SDS011;27089;50.022;7.604;2023-07-13T12:23:55;2.63;;;1.10;;
41343;SDS011;27089;50.022;7.604;2023-07-13T12:26:22;2.40;;;1.17;;
41343;SDS011;27089;50.022;7.604;2023-07-13T12:28:51;2.85;;;1.08;;
41343;SDS011;27089;50.022;7.604;2023-07-13T12:31:31;3.50;;;1.30;;
41343;SDS011;27089;50.022;7.604;2023-07-13T12:34:02;1.77;;;0.93;;
41343;SDS011;27089;50.022;7.604;2023-07-13T12:36:34;3.30;;;1.08;;
41343;SDS011;27089;50.022;7.604;2023-07-13T12:39:04;1.83;;;0.90;;
41343;SDS011;27089;50.022;7.604;2023-07-13T12:41:41;4.38;;;1.15;;
41343;SDS011;27089;50.022;7.604;2023-07-13T12:44:10;1.05;;;0.90;;
41343;SDS011;27089;50.022;7.604;2023-07-13T12:46:38;2.75;;;0.90;;
41343;SDS011;27089;50.022;7.604;2023-07-13T12:49:07;1.45;;;0.82;;
41343;SDS011;27089;50.022;7.604;2023-07-13T12:51:35;3.10;;;0.80;;
41343;SDS011;27089;50.022;7.604;2023-07-13T12:54:12;3.00;;;1.20;;
41343;SDS011;27089;50.022;7.604;2023-07-13T12:56:43;3.45;;;1.00;;
41343;SDS011;27089;50.022;7.604;2023-07-13T12:59:18;1.77;;;1.13;;
41343;SDS011;27089;50.022;7.604;2023-07-13T13:01:46;2.08;;;0.85;;
41343;SDS011;27089;50.022;7.604;2023-07-13T13:04:16;1.83;;;0.98;;
41343;SDS011;27089;50.022;7.604;2023-07-13T13:06:46;1.83;;;0.80;;
41343;SDS011;27089;50.022;7.604;2023-07-13T13:09:15;2.05;;;1.00;;
41343;SDS011;27089;50.022;7.604;2023-07-13T13:11:43;1.52;;;0.90;;
41343;SDS011;27089;50.022;7.604;2023-07-13T13:14:10;1.92;;;1.00;;
41343;SDS011;27089;50.022;7.604;2023-07-13T13:16:39;2.47;;;1.23;;
41343;SDS011;27089;50.022;7.604;2023-07-13T13:19:13;1.48;;;0.85;;
41343;SDS011;27089;50.022;7.604;2023-07-13T13:21:43;2.42;;;1.02;;
41343;SDS011;27089;50.022;7.604;2023-07-13T13:24:12;1.67;;;0.98;;
41343;SDS011;27089;50.022;7.604;2023-07-13T13:26:40;3.08;;;0.90;;
41343;SDS011;27089;50.022;7.604;2023-07-13T13:29:11;1.38;;;0.80;;
41343;SDS011;27089;50.022;7.604;2023-07-13T13:31:40;2.10;;;0.80;;
41343;SDS011;27089;50.022;7.604;2023-07-13T13:34:08;1.42;;;0.80;;
41343;SDS011;27089;50.022;7.604;2023-07-13T13:36:36;2.00;;;1.10;;
41343;SDS011;27089;50.022;7.604;2023-07-13T13:39:08;2.72;;;1.20;;
41343;SDS011;27089;50.022;7.604;2023-07-13T13:41:47;2.80;;;1.20;;
41343;SDS011;27089;50.022;7.604;2023-07-13T13:44:15;3.95;;;0.93;;
41343;SDS011;27089;50.022;7.604;2023-07-13T13:46:43;1.20;;;0.80;;
41343;SDS011;27089;50.022;7.604;2023-07-13T13:49:13;4.32;;;0.80;;
41343;SDS011;27089;50.022;7.604;2023-07-13T13:51:42;1.90;;;1.05;;
41343;SDS011;27089;50.022;7.604;2023-07-13T13:54:12;1.27;;;0.80;;
41343;SDS011;27089;50.022;7.604;2023-07-13T13:56:41;2.30;;;0.85;;
41343;SDS011;27089;50.022;7.604;2023-07-13T13:59:08;2.90;;;0.98;;
41343;SDS011;27089;50.022;7.604;2023-07-13T14:01:35;1.33;;;0.85;;
41343;SDS011;27089;50.022;7.604;2023-07-13T14:04:03;1.73;;;0.88;;
41343;SDS011;27089;50.022;7.604;2023-07-13T14:06:32;1.10;;;1.00;;
41343;SDS011;27089;50.022;7.604;2023-07-13T14:08:59;1.77;;;0.77;;
41343;SDS011;27089;50.022;7.604;2023-07-13T14:11:29;2.85;;;1.00;;
41343;SDS011;27089;50.022;7.604;2023-07-13T14:13:58;2.78;;;1.00;;
41343;SDS011;27089;50.022;7.604;2023-07-13T14:16:28;2.22;;;1.00;;
41343;SDS011;27089;50.022;7.604;2023-07-13T14:18:57;2.47;;;0.90;;
41343;SDS011;27089;50.022;7.604;2023-07-13T14:21:26;1.33;;;0.90;;
41343;SDS011;27089;50.022;7.604;2023-07-13T14:23:53;3.75;;;1.05;;
41343;SDS011;27089;50.022;7.604;2023-07-13T14:26:21;1.27;;;0.93;;
41343;SDS011;27089;50.022;7.604;2023-07-13T14:28:52;2.20;;;0.90;;
41343;SDS011;27089;50.022;7.604;2023-07-13T14:31:20;1.75;;;0.80;;
41343;SDS011;27089;50.022;7.604;2023-07-13T14:33:48;2.85;;;1.20;;
41343;SDS011;27089;50.022;7.604;2023-07-13T14:36:23;2.03;;;1.08;;
41343;SDS011;27089;50.022;7.604;2023-07-13T14:38:54;1.45;;;0.85;;
41343;SDS011;27089;50.022;7.604;2023-07-13T14:41:21;3.22;;;1.15;;
41343;SDS011;27089;50.022;7.604;2023-07-13T14:43:48;2.03;;;0.90;;
41343;SDS011;27089;50.022;7.604;2023-07-13T14:46:24;1.92;;;0.88;;
41343;SDS011;27089;50.022;7.604;2023-07-13T14:48:54;2.33;;;1.13;;
41343;SDS011;27089;50.022;7.604;2023-07-13T14:51:27;2.10;;;0.80;;
41343;SDS011;27089;50.022;7.604;2023-07-13T14:53:54;3.40;;;1.10;;
41343;SDS011;27089;50.022;7.604;2023-07-13T14:56:21;2.30;;;1.30;;
41343;SDS011;27089;50.022;7.604;2023-07-13T14:58:48;2.25;;;1.00;;
41343;SDS011;27089;50.022;7.604;2023-07-13T15:01:15;3.65;;;1.10;;
41343;SDS011;27089;50.022;7.604;2023-07-13T15:03:45;2.67;;;1.25;;
41343;SDS011;27089;50.022;7.604;2023-07-13T15:06:13;2.50;;;0.93;;
41343;SDS011;27089;50.022;7.604;2023-07-13T15:08:41;1.58;;;1.00;;